TimeAKST,TemperatureF,Dew PointF,Humidity,Sea Level PressureIn,VisibilityMPH,Wind Direction,Wind SpeedMPH,Gust SpeedMPH,PrecipitationIn,Events,Conditions,WindDirDegrees,DateUTC
12:16 AM,35.6,32.0,87,29.97,10.0,Calm,Calm,-,N/A,,Overcast,0,2013-03-02 09:16:00
12:36 AM,35.6,32.0,87,29.97,10.0,Calm,Calm,-,N/A,,Overcast,0,2013-03-02 09:36:00
12:56 AM,35.6,32.0,87,29.97,10.0,WNW,3.5,-,N/A,,Overcast,290,2013-03-02 09:56:00
1:16 AM,35.6,32.0,87,29.98,10.0,Calm,Calm,-,N/A,,Overcast,0,2013-03-02 10:16:00
1:36 AM,35.6,32.0,87,29.97,10.0,SW,3.5,-,N/A,,Overcast,230,2013-03-02 10:36:00
1:56 AM,37.4,33.8,87,29.97,10.0,WSW,3.5,-,N/A,,Overcast,250,2013-03-02 10:56:00
2:16 AM,37.4,33.8,87,29.97,10.0,Calm,Calm,-,N/A,,Overcast,0,2013-03-02 11:16:00
3:36 AM,37.4,33.8,87,29.96,10.0,Calm,Calm,-,N/A,,Overcast,0,2013-03-02 12:36:00
3:56 AM,35.6,32.0,87,29.96,10.0,NE,3.5,-,N/A,,Overcast,40,2013-03-02 12:56:00
4:16 AM,37.4,32.0,81,29.96,10.0,ENE,8.1,-,N/A,,Overcast,70,2013-03-02 13:16:00
4:36 AM,35.6,32.0,87,29.97,7.0,East,5.8,-,0.04,,Overcast,80,2013-03-02 13:36:00
4:56 AM,33.8,30.2,87,29.97,5.0,NNE,3.5,-,0.07,,Overcast,20,2013-03-02 13:56:00
5:16 AM,-9999,-9999,N/A,-9999,-9999.0,North,-9999.0,-,0.02,,Unknown,0,2013-03-02 14:16:00
5:36 AM,33.8,30.2,87,29.97,1.5,Calm,Calm,-,0.02,,Overcast,0,2013-03-02 14:36:00
5:56 AM,33.8,30.2,87,29.96,3.0,Calm,Calm,-,0.02,,Overcast,0,2013-03-02 14:56:00
6:16 AM,33.8,30.2,87,29.96,7.0,Calm,Calm,-,N/A,,Overcast,0,2013-03-02 15:16:00
6:36 AM,33.8,30.2,87,29.96,7.0,Calm,Calm,-,N/A,,Overcast,0,2013-03-02 15:36:00
6:56 AM,33.8,30.2,87,29.96,10.0,Calm,Calm,-,0.02,,Overcast,0,2013-03-02 15:56:00
7:16 AM,33.8,30.2,87,29.96,10.0,Calm,Calm,-,0.01,,Overcast,0,2013-03-02 16:16:00
7:36 AM,33.8,30.2,87,29.96,10.0,Calm,Calm,-,0.03,,Overcast,0,2013-03-02 16:36:00
7:56 AM,33.8,30.2,87,29.96,10.0,Calm,Calm,-,0.04,,Overcast,0,2013-03-02 16:56:00
8:16 AM,33.8,30.2,87,29.96,10.0,Calm,Calm,-,0.01,,Overcast,0,2013-03-02 17:16:00
8:36 AM,33.8,30.2,87,29.96,10.0,Calm,Calm,-,0.03,,Overcast,0,2013-03-02 17:36:00
8:56 AM,33.8,32.0,93,29.96,10.0,Calm,Calm,-,0.03,,Overcast,0,2013-03-02 17:56:00
9:16 AM,35.6,33.8,93,29.96,10.0,East,3.5,-,N/A,,Overcast,100,2013-03-02 18:16:00
9:36 AM,35.6,32.0,87,29.97,10.0,Calm,Calm,-,N/A,,Overcast,0,2013-03-02 18:36:00
9:56 AM,35.6,33.8,93,29.97,10.0,Calm,Calm,-,N/A,,Mostly Cloudy,0,2013-03-02 18:56:00
10:16 AM,35.6,32.0,87,29.98,10.0,Calm,Calm,-,N/A,,Mostly Cloudy,0,2013-03-02 19:16:00
10:36 AM,37.4,33.8,87,29.98,10.0,Calm,Calm,-,N/A,,Mostly Cloudy,0,2013-03-02 19:36:00
10:56 AM,37.4,33.8,87,29.99,10.0,Calm,Calm,-,N/A,,Mostly Cloudy,0,2013-03-02 19:56:00
11:16 AM,37.4,33.8,87,29.99,10.0,Calm,Calm,-,N/A,,Mostly Cloudy,0,2013-03-02 20:16:00
11:36 AM,37.4,33.8,87,30.00,10.0,Calm,Calm,-,N/A,,Mostly Cloudy,0,2013-03-02 20:36:00
11:56 AM,37.4,33.8,87,30.00,10.0,Calm,Calm,-,N/A,,Overcast,0,2013-03-02 20:56:00
12:16 PM,37.4,33.8,87,30.01,10.0,Calm,Calm,-,N/A,,Overcast,0,2013-03-02 21:16:00
12:36 PM,37.4,33.8,87,30.01,5.0,Calm,Calm,-,0.01,,Overcast,0,2013-03-02 21:36:00
12:56 PM,37.4,33.8,87,30.01,5.0,ENE,4.6,-,0.02,,Overcast,60,2013-03-02 21:56:00
1:16 PM,37.4,33.8,87,30.02,5.0,NNE,4.6,-,0.02,,Overcast,30,2013-03-02 22:16:00
1:36 PM,37.4,33.8,87,30.02,5.0,ENE,4.6,-,0.02,,Overcast,70,2013-03-02 22:36:00
1:56 PM,37.4,33.8,87,30.03,5.0,NE,5.8,-,0.03,,Overcast,40,2013-03-02 22:56:00
2:16 PM,37.4,33.8,87,30.03,5.0,ENE,5.8,-,N/A,,Overcast,60,2013-03-02 23:16:00
2:36 PM,37.4,33.8,87,30.03,5.0,ENE,5.8,-,N/A,,Overcast,60,2013-03-02 23:36:00
2:56 PM,37.4,33.8,87,30.03,5.0,NE,4.6,-,N/A,,Overcast,50,2013-03-02 23:56:00
3:16 PM,35.6,33.8,93,30.04,10.0,Calm,Calm,-,N/A,,Overcast,0,2013-03-03 00:16:00
3:36 PM,37.4,33.8,87,30.04,10.0,Calm,Calm,-,0.01,,Overcast,0,2013-03-03 00:36:00
3:56 PM,37.4,33.8,87,30.04,10.0,Calm,Calm,-,0.01,,Overcast,0,2013-03-03 00:56:00
4:16 PM,37.4,33.8,87,30.05,10.0,Calm,Calm,-,N/A,,Overcast,0,2013-03-03 01:16:00
4:36 PM,37.4,33.8,87,30.05,10.0,Calm,Calm,-,N/A,,Overcast,0,2013-03-03 01:36:00
4:50 PM,37.4,33.8,87,30.05,10.0,Calm,Calm,-,N/A,Fog,Patches of Fog,0,2013-03-03 01:50:00
5:47 PM,37.4,35.6,93,30.06,7.0,Calm,Calm,-,N/A,Fog,Patches of Fog,0,2013-03-03 02:47:00
6:47 PM,33.8,32.0,93,30.08,5.0,Calm,Calm,-,N/A,,Mostly Cloudy,0,2013-03-03 03:47:00
7:47 PM,33.8,32.0,93,30.10,0.5,Calm,Calm,-,N/A,Fog,Fog,0,2013-03-03 04:47:00
8:46 PM,33.8,32.0,93,30.12,0.5,Calm,Calm,-,N/A,Fog,Fog,0,2013-03-03 05:46:00
9:36 PM,33.8,30.2,87,30.15,0.5,Calm,Calm,-,N/A,,Overcast,0,2013-03-03 06:36:00
9:56 PM,32.0,30.2,93,30.15,0.8,Calm,Calm,-,N/A,,Overcast,0,2013-03-03 06:56:00
10:16 PM,32.0,30.2,93,30.16,0.5,SW,3.5,-,N/A,,Overcast,230,2013-03-03 07:16:00
10:36 PM,32.0,30.2,93,30.17,5.0,SW,3.5,-,N/A,,Overcast,230,2013-03-03 07:36:00
10:56 PM,32.0,30.2,93,30.18,10.0,Calm,Calm,-,N/A,,Overcast,0,2013-03-03 07:56:00
11:16 PM,32.0,30.2,93,30.19,10.0,WSW,3.5,-,N/A,,Overcast,240,2013-03-03 08:16:00
11:36 PM,33.8,30.2,87,30.20,10.0,SSW,3.5,-,N/A,,Overcast,210,2013-03-03 08:36:00
11:56 PM,33.8,30.2,87,30.21,10.0,Calm,Calm,-,N/A,,Overcast,0,2013-03-03 08:56:00